createdAt,value
2022-08-17T00:00:34.981Z,35.65
2022-08-17T00:03:10.241Z,36.03
2022-08-17T00:05:50.352Z,39.35
2022-08-17T00:08:20.191Z,38.20
2022-08-17T00:10:48.103Z,32.55
2022-08-17T00:13:25.746Z,19.10
2022-08-17T00:15:55.916Z,13.45
2022-08-17T00:19:06.301Z,15.07
2022-08-17T00:21:11.617Z,14.95
2022-08-17T00:23:47.687Z,16.63
2022-08-17T00:26:34.865Z,22.90
2022-08-17T00:29:07.230Z,29.08
2022-08-17T00:31:35.624Z,25.15
2022-08-17T00:34:03.327Z,21.75
2022-08-17T00:36:30.209Z,22.77
2022-08-17T00:38:57.087Z,21.27
2022-08-17T00:41:27.234Z,25.30
2022-08-17T00:44:01.700Z,36.85
2022-08-17T00:46:32.235Z,33.67
2022-08-17T00:48:59.804Z,33.95
2022-08-17T00:51:32.392Z,34.13
2022-08-17T00:54:13.179Z,35.88
2022-08-17T00:56:44.617Z,40.03
2022-08-17T00:59:17.369Z,43.75
2022-08-17T01:01:46.019Z,43.65
2022-08-17T01:04:14.041Z,41.63
2022-08-17T01:06:42.829Z,39.92
2022-08-17T01:09:09.826Z,37.08
2022-08-17T01:11:39.500Z,34.25
2022-08-17T01:14:08.899Z,31.25
2022-08-17T01:16:37.458Z,31.95
2022-08-17T01:19:16.861Z,35.00
2022-08-17T01:21:46.681Z,36.33
2022-08-17T01:24:14.667Z,38.90
2022-08-17T01:26:44.156Z,40.33
2022-08-17T01:29:12.686Z,33.42
2022-08-17T01:31:44.416Z,29.90
2022-08-17T01:34:14.388Z,31.27
2022-08-17T01:36:45.864Z,32.55
2022-08-17T01:39:23.251Z,31.15
2022-08-17T01:41:53.547Z,29.08
2022-08-17T01:44:22.118Z,27.02
2022-08-17T01:46:49.494Z,26.33
2022-08-17T01:49:16.396Z,29.33
2022-08-17T01:51:43.422Z,30.75
2022-08-17T01:54:13.721Z,29.20
2022-08-17T01:56:44.245Z,31.05
2022-08-17T01:59:16.082Z,32.28
2022-08-17T02:01:43.617Z,30.63
2022-08-17T02:04:11.969Z,29.73
2022-08-17T02:06:47.038Z,27.67
2022-08-17T02:09:25.304Z,26.70
2022-08-17T02:11:54.825Z,25.80
2022-08-17T02:14:24.522Z,25.08
2022-08-17T02:16:51.871Z,25.40
2022-08-17T02:19:18.856Z,24.65
2022-08-17T02:21:48.259Z,23.73
2022-08-17T02:24:59.778Z,22.88
2022-08-17T02:27:07.169Z,22.70
2022-08-17T02:29:34.032Z,21.58
2022-08-17T02:32:01.905Z,22.50
2022-08-17T02:34:30.002Z,23.67
2022-08-17T02:36:56.889Z,24.08
2022-08-17T02:39:24.038Z,32.72
2022-08-17T02:42:00.981Z,32.20
2022-08-17T02:44:39.075Z,32.58
2022-08-17T02:47:08.745Z,29.52
2022-08-17T02:49:36.226Z,28.10
2022-08-17T02:52:05.788Z,27.55
2022-08-17T02:54:41.806Z,28.25
2022-08-17T02:57:10.587Z,27.98
2022-08-17T02:59:46.768Z,28.20
2022-08-17T03:02:15.723Z,26.58
2022-08-17T03:04:42.593Z,27.45
2022-08-17T03:07:09.572Z,27.30
2022-08-17T03:09:36.356Z,28.40
2022-08-17T03:12:12.940Z,27.75
2022-08-17T03:14:42.005Z,25.27
2022-08-17T03:17:15.881Z,24.65
2022-08-17T03:19:44.611Z,26.35
2022-08-17T03:22:36.623Z,30.88
2022-08-17T03:24:58.685Z,31.17
2022-08-17T03:27:25.597Z,29.27
2022-08-17T03:29:52.386Z,30.63
2022-08-17T03:32:20.751Z,30.58
2022-08-17T03:34:47.810Z,31.25
2022-08-17T03:37:15.051Z,30.08
2022-08-17T03:39:42.824Z,33.25
2022-08-17T03:42:32.040Z,38.28
2022-08-17T03:45:01.411Z,43.20
2022-08-17T03:47:46.888Z,47.33
2022-08-17T03:50:33.144Z,37.65
2022-08-17T03:53:21.285Z,39.22
2022-08-17T03:56:06.663Z,36.65
2022-08-17T03:58:33.875Z,38.47
2022-08-17T04:01:00.723Z,41.50
2022-08-17T04:03:27.712Z,45.47
2022-08-17T04:05:54.585Z,53.95
2022-08-17T04:08:24.154Z,53.00
2022-08-17T04:10:53.658Z,56.67
2022-08-17T04:13:24.190Z,58.50
2022-08-17T04:15:52.521Z,58.45
2022-08-17T04:18:20.185Z,54.55
2022-08-17T04:20:47.195Z,55.78
2022-08-17T04:23:19.134Z,54.08
2022-08-17T04:25:50.255Z,57.35
2022-08-17T04:28:20.727Z,58.00
2022-08-17T04:30:48.392Z,55.45
2022-08-17T04:33:21.836Z,54.90
2022-08-17T04:35:51.386Z,55.85
2022-08-17T04:38:21.630Z,55.35
2022-08-17T04:41:07.520Z,57.28
2022-08-17T04:43:36.089Z,58.13
2022-08-17T04:46:05.900Z,56.17
2022-08-17T04:48:37.438Z,51.70
2022-08-17T04:51:16.867Z,49.03
2022-08-17T04:53:53.832Z,45.50
2022-08-17T04:56:22.210Z,53.25
2022-08-17T04:58:50.836Z,57.33
2022-08-17T05:01:23.769Z,57.45
2022-08-17T05:03:53.077Z,59.08
2022-08-17T05:06:20.734Z,57.72
2022-08-17T05:08:47.582Z,55.28
2022-08-17T05:11:14.820Z,53.88
2022-08-17T05:13:41.832Z,53.60
2022-08-17T05:16:09.214Z,58.90
2022-08-17T05:18:37.325Z,59.13
2022-08-17T05:21:05.509Z,57.28
2022-08-17T05:23:42.572Z,56.13
2022-08-17T05:26:15.788Z,57.67
2022-08-17T05:28:52.816Z,57.85
2022-08-17T05:31:21.106Z,60.75
2022-08-17T05:33:49.468Z,59.05
2022-08-17T05:36:43.265Z,59.03
2022-08-17T05:39:03.823Z,59.90
2022-08-17T05:41:30.598Z,59.70
2022-08-17T05:43:57.445Z,59.13
2022-08-17T05:46:28.581Z,59.03
2022-08-17T05:49:03.728Z,60.05
2022-08-17T05:51:47.738Z,58.75
2022-08-17T05:54:48.232Z,59.55
2022-08-17T05:57:43.590Z,57.92
2022-08-17T06:00:30.720Z,59.47
2022-08-17T06:03:15.344Z,56.05
2022-08-17T06:05:48.254Z,60.38
2022-08-17T06:08:30.437Z,61.90
2022-08-17T06:11:35.360Z,61.95
2022-08-17T06:14:06.855Z,62.40
2022-08-17T06:16:41.137Z,62.10
2022-08-17T06:19:13.955Z,60.38
2022-08-17T06:21:45.225Z,60.20
2022-08-17T06:24:24.294Z,60.70
2022-08-17T06:26:52.239Z,60.08
2022-08-17T06:29:57.912Z,59.42
2022-08-17T06:32:25.288Z,57.50
2022-08-17T06:34:53.520Z,59.97
2022-08-17T06:37:35.840Z,58.13
2022-08-17T06:40:27.871Z,59.17
2022-08-17T06:43:16.443Z,62.38
2022-08-17T06:45:54.253Z,62.00
2022-08-17T06:48:54.179Z,58.72
2022-08-17T06:51:27.311Z,57.78
2022-08-17T06:54:02.774Z,58.90
2022-08-17T06:56:52.731Z,58.40
2022-08-17T06:59:26.849Z,58.20
2022-08-17T07:02:29.219Z,55.00
2022-08-17T07:05:10.076Z,55.65
2022-08-17T07:07:57.982Z,54.65
2022-08-17T07:10:27.541Z,56.17
2022-08-17T07:12:57.642Z,59.85
2022-08-17T07:15:38.845Z,60.35
2022-08-17T07:18:05.705Z,67.20
2022-08-17T07:20:33.495Z,66.03
2022-08-17T07:23:12.397Z,65.50
2022-08-17T07:25:39.222Z,65.20
2022-08-17T07:28:07.786Z,68.15
2022-08-17T07:30:49.239Z,65.55
2022-08-17T07:33:25.104Z,65.78
2022-08-17T07:35:53.214Z,66.18
2022-08-17T07:38:27.768Z,68.90
2022-08-17T07:41:03.659Z,67.63
2022-08-17T07:43:39.310Z,68.35
2022-08-17T07:46:38.878Z,71.28
2022-08-17T07:49:08.685Z,76.72
2022-08-17T07:51:37.931Z,75.03
2022-08-17T07:54:22.589Z,81.30
2022-08-17T07:56:54.429Z,81.97
2022-08-17T07:59:24.263Z,84.82
2022-08-17T08:02:08.063Z,80.60
2022-08-17T08:04:59.730Z,82.60
2022-08-17T08:07:42.524Z,70.78
2022-08-17T08:10:16.850Z,71.60
2022-08-17T08:12:49.026Z,73.53
2022-08-17T08:15:34.390Z,65.57
2022-08-17T08:18:04.365Z,70.93
2022-08-17T08:20:52.349Z,73.00
2022-08-17T08:23:39.561Z,73.63
2022-08-17T08:26:31.663Z,75.60
2022-08-17T08:29:28.361Z,79.15
2022-08-17T08:32:07.683Z,82.43
2022-08-17T08:35:01.287Z,81.68
2022-08-17T08:38:16.956Z,81.15
2022-08-17T08:40:55.355Z,74.38
2022-08-17T08:43:29.183Z,81.05
2022-08-17T08:46:15.454Z,82.18
2022-08-17T08:49:11.819Z,87.43
2022-08-17T08:51:59.004Z,80.32
2022-08-17T08:54:28.342Z,83.15
2022-08-17T08:57:23.903Z,80.55
2022-08-17T09:00:13.317Z,83.63
2022-08-17T09:03:05.301Z,81.47
2022-08-17T09:05:35.046Z,79.63
2022-08-17T09:08:07.867Z,77.18
2022-08-17T09:10:59.845Z,76.53
2022-08-17T09:13:54.465Z,76.15
2022-08-17T09:16:36.805Z,78.15
2022-08-17T09:19:21.258Z,74.38
2022-08-17T09:21:55.620Z,70.38
2022-08-17T09:24:33.451Z,69.55
2022-08-17T09:27:28.842Z,61.08
2022-08-17T09:30:02.674Z,57.70
2022-08-17T09:32:49.986Z,54.08
2022-08-17T09:35:22.875Z,46.60
2022-08-17T09:38:18.189Z,46.78
2022-08-17T09:41:13.904Z,44.00
2022-08-17T09:43:49.750Z,42.40
2022-08-17T09:46:16.478Z,42.78
2022-08-17T09:49:09.694Z,44.53
2022-08-17T09:51:42.111Z,44.65
2022-08-17T09:54:39.283Z,44.50
2022-08-17T09:57:31.513Z,41.72
2022-08-17T10:00:11.227Z,35.65
2022-08-17T10:02:41.716Z,34.95
2022-08-17T10:05:22.355Z,25.73
2022-08-17T10:08:09.419Z,24.40
2022-08-17T10:10:58.808Z,30.65
2022-08-17T10:13:52.909Z,31.13
2022-08-17T10:16:27.595Z,30.10
2022-08-17T10:19:16.268Z,28.08
2022-08-17T10:22:32.509Z,28.70
2022-08-17T10:25:22.911Z,33.35
2022-08-17T10:27:56.602Z,37.97
2022-08-17T10:30:26.801Z,34.70
2022-08-17T10:32:59.623Z,41.20
2022-08-17T10:35:38.794Z,40.80
2022-08-17T10:38:37.897Z,39.45
2022-08-17T10:41:40.562Z,29.55
2022-08-17T10:44:49.984Z,30.65
2022-08-17T10:47:19.122Z,30.25
2022-08-17T10:49:49.664Z,32.35
2022-08-17T10:52:19.561Z,35.30
2022-08-17T10:54:59.493Z,33.15
2022-08-17T10:57:29.392Z,33.85
2022-08-17T10:59:58.224Z,26.52
2022-08-17T11:02:31.443Z,25.92
2022-08-17T11:05:14.522Z,28.15
2022-08-17T11:08:05.472Z,24.73
2022-08-17T11:10:55.891Z,21.13
2022-08-17T11:13:28.314Z,25.48
2022-08-17T11:16:24.098Z,28.60
2022-08-17T11:19:24.014Z,32.25
2022-08-17T11:22:09.004Z,28.23
2022-08-17T11:24:39.871Z,26.90
2022-08-17T11:27:27.445Z,30.58
2022-08-17T11:30:02.204Z,33.75
2022-08-17T11:32:48.662Z,30.27
2022-08-17T11:35:22.911Z,25.65
2022-08-17T11:38:04.936Z,29.42
2022-08-17T11:40:43.157Z,28.67
2022-08-17T11:43:45.466Z,32.03
2022-08-17T11:46:51.771Z,29.60
2022-08-17T11:50:11.606Z,27.23
2022-08-17T11:52:44.417Z,28.05
2022-08-17T11:55:40.573Z,26.95
2022-08-17T11:58:45.115Z,27.17
2022-08-17T12:01:22.838Z,26.30
2022-08-17T12:03:57.068Z,23.95
2022-08-17T12:06:30.437Z,24.92
2022-08-17T12:09:20.379Z,23.75
2022-08-17T12:12:12.373Z,23.67
2022-08-17T12:17:40.717Z,23.35
2022-08-17T12:20:40.261Z,21.83
2022-08-17T12:23:30.850Z,23.02
2022-08-17T12:26:09.077Z,21.98
2022-08-17T12:28:38.862Z,21.77
2022-08-17T12:31:21.996Z,22.17
2022-08-17T12:33:51.778Z,23.98
2022-08-17T12:36:28.273Z,27.55
2022-08-17T12:39:14.611Z,27.50
2022-08-17T12:41:51.027Z,28.30
2022-08-17T12:44:24.284Z,25.13
2022-08-17T12:46:56.082Z,28.05
2022-08-17T12:49:25.222Z,25.60
2022-08-17T12:52:00.501Z,28.52
2022-08-17T12:54:42.028Z,27.00
2022-08-17T12:57:27.914Z,26.63
2022-08-17T12:59:59.152Z,26.55
2022-08-17T13:02:37.524Z,28.52
2022-08-17T13:05:05.754Z,26.17
2022-08-17T13:07:44.826Z,26.38
2022-08-17T13:10:31.643Z,26.92
2022-08-17T13:13:04.855Z,25.60
2022-08-17T13:15:44.404Z,27.00
2022-08-17T13:18:33.640Z,23.98
2022-08-17T13:21:01.194Z,21.52
2022-08-17T13:23:29.966Z,26.63
2022-08-17T13:26:14.586Z,27.05
2022-08-17T13:28:49.931Z,27.48
2022-08-17T13:31:44.065Z,27.48
2022-08-17T13:34:33.308Z,22.55
2022-08-17T13:37:26.135Z,25.75
2022-08-17T13:40:00.054Z,26.60
2022-08-17T13:42:34.927Z,27.33
2022-08-17T13:45:34.799Z,26.67
2022-08-17T13:48:08.766Z,29.27
2022-08-17T13:50:41.176Z,26.30
2022-08-17T13:53:35.582Z,28.73
2022-08-17T13:56:40.432Z,30.17
2022-08-17T13:59:52.749Z,27.08
2022-08-17T14:02:19.853Z,29.48
2022-08-17T14:04:47.940Z,30.08
2022-08-17T14:07:16.045Z,29.80
2022-08-17T14:09:57.749Z,29.75
2022-08-17T14:12:27.339Z,31.08
2022-08-17T14:14:56.333Z,30.67
2022-08-17T14:17:24.512Z,27.73
2022-08-17T14:19:51.899Z,27.50
2022-08-17T14:22:30.972Z,25.92
2022-08-17T14:24:59.360Z,26.10
2022-08-17T14:27:28.178Z,25.20
2022-08-17T14:29:55.874Z,25.67
2022-08-17T14:32:29.271Z,23.00
2022-08-17T14:34:57.830Z,22.73
2022-08-17T14:37:28.019Z,23.48
2022-08-17T14:39:56.720Z,24.00
2022-08-17T14:42:25.300Z,24.63
2022-08-17T14:44:56.309Z,25.60
2022-08-17T14:47:23.207Z,24.90
2022-08-17T14:49:50.131Z,24.13
2022-08-17T14:52:21.785Z,24.73
2022-08-17T14:54:51.299Z,23.67
2022-08-17T14:57:33.354Z,25.48
2022-08-17T15:00:02.149Z,25.30
2022-08-17T15:02:30.883Z,26.92
2022-08-17T15:05:00.809Z,25.95
2022-08-17T15:07:30.436Z,22.60
2022-08-17T15:10:02.124Z,23.40
2022-08-17T15:12:34.685Z,24.00
2022-08-17T15:15:04.455Z,24.80
2022-08-17T15:17:44.191Z,26.55
2022-08-17T15:20:20.316Z,27.70
2022-08-17T15:22:54.918Z,28.92
2022-08-17T15:25:22.442Z,29.15
2022-08-17T15:27:49.557Z,29.58
2022-08-17T15:30:17.733Z,31.20
2022-08-17T15:32:46.865Z,30.90
2022-08-17T15:35:26.917Z,29.40
2022-08-17T15:38:10.775Z,27.50
2022-08-17T15:40:42.102Z,26.60
2022-08-17T15:43:12.032Z,28.33
2022-08-17T15:45:39.637Z,26.38
2022-08-17T15:48:07.031Z,26.20
2022-08-17T15:50:33.916Z,25.02
2022-08-17T15:53:03.257Z,25.35
2022-08-17T15:55:31.565Z,26.30
2022-08-17T15:57:58.856Z,30.27
2022-08-17T16:00:28.358Z,27.77
2022-08-17T16:03:42.582Z,24.48
2022-08-17T16:05:43.510Z,23.95
2022-08-17T16:08:11.123Z,22.85
2022-08-17T16:10:38.259Z,22.95
2022-08-17T16:13:05.231Z,21.92
2022-08-17T16:15:44.038Z,21.85
2022-08-17T16:18:11.279Z,23.55
2022-08-17T16:20:38.306Z,23.63
2022-08-17T16:23:05.802Z,22.67
2022-08-17T16:25:38.353Z,22.05
2022-08-17T16:28:20.098Z,20.30
2022-08-17T16:30:46.986Z,17.95
2022-08-17T16:33:15.065Z,17.85
2022-08-17T16:35:42.164Z,18.20
2022-08-17T16:38:09.504Z,20.88
2022-08-17T16:40:36.582Z,23.67
2022-08-17T16:43:11.973Z,22.40
2022-08-17T16:45:40.686Z,27.35
2022-08-17T16:48:09.452Z,32.70
2022-08-17T16:50:37.249Z,24.38
2022-08-17T16:53:10.948Z,23.60
2022-08-17T16:55:38.487Z,19.73
2022-08-17T16:58:06.932Z,19.75
2022-08-17T17:00:34.059Z,20.70
2022-08-17T17:03:19.451Z,20.98
2022-08-17T17:06:27.776Z,21.75
2022-08-17T17:09:06.941Z,21.80
2022-08-17T17:11:40.733Z,22.10
2022-08-17T17:14:14.183Z,22.48
2022-08-17T17:17:11.942Z,21.73
2022-08-17T17:19:45.519Z,20.35
2022-08-17T17:22:39.555Z,20.58
2022-08-17T17:25:15.513Z,20.58
2022-08-17T17:27:54.410Z,20.13
2022-08-17T17:30:47.392Z,20.02
2022-08-17T17:33:23.431Z,20.00
2022-08-17T17:36:06.917Z,20.60
2022-08-17T17:38:47.616Z,20.25
2022-08-17T17:41:29.050Z,20.77
2022-08-17T17:44:12.266Z,22.27
2022-08-17T17:46:48.423Z,21.20
2022-08-17T17:49:17.773Z,20.58
2022-08-17T17:52:11.117Z,20.55
2022-08-17T17:54:47.951Z,20.73
2022-08-17T17:57:26.437Z,21.20
2022-08-17T18:00:03.514Z,22.23
2022-08-17T18:03:09.712Z,27.25
2022-08-17T18:06:06.145Z,26.83
2022-08-17T18:09:09.238Z,27.10
2022-08-17T18:11:59.509Z,25.42
2022-08-17T18:14:46.405Z,26.83
2022-08-17T18:17:14.550Z,26.70
2022-08-17T18:19:41.552Z,26.42
2022-08-17T18:22:19.290Z,26.80
2022-08-17T18:24:55.766Z,27.00
2022-08-17T18:27:28.602Z,27.45
2022-08-17T18:29:57.575Z,26.50
2022-08-17T18:32:31.910Z,26.08
2022-08-17T18:35:14.299Z,25.95
2022-08-17T18:37:45.459Z,25.35
2022-08-17T18:40:19.595Z,26.58
2022-08-17T18:43:02.991Z,25.67
2022-08-17T18:45:49.736Z,26.52
2022-08-17T18:48:36.085Z,26.30
2022-08-17T18:51:42.426Z,26.02
2022-08-17T18:54:18.341Z,25.42
2022-08-17T18:56:52.805Z,26.75
2022-08-17T18:59:41.306Z,26.52
2022-08-17T19:02:20.638Z,25.70
2022-08-17T19:05:04.387Z,25.98
2022-08-17T19:07:35.591Z,25.20
2022-08-17T19:10:12.057Z,24.70
2022-08-17T19:12:46.038Z,23.25
2022-08-17T19:15:16.595Z,23.00
2022-08-17T19:17:59.399Z,21.05
2022-08-17T19:20:38.209Z,21.95
2022-08-17T19:23:29.231Z,22.13
2022-08-17T19:26:01.645Z,23.10
2022-08-17T19:28:36.991Z,22.80
2022-08-17T19:31:20.624Z,23.45
2022-08-17T19:33:48.144Z,23.20
2022-08-17T19:36:25.650Z,21.33
2022-08-17T19:39:38.020Z,22.45
2022-08-17T19:42:21.536Z,20.98
2022-08-17T19:45:08.891Z,21.92
2022-08-17T19:47:59.493Z,21.92
2022-08-17T19:50:57.799Z,22.80
2022-08-17T19:54:01.815Z,22.05
2022-08-17T19:56:47.538Z,23.02
2022-08-17T19:59:49.027Z,22.83
2022-08-17T20:02:33.063Z,21.70
2022-08-17T20:05:05.460Z,22.15
2022-08-17T20:08:00.329Z,21.45
2022-08-17T20:10:40.468Z,21.75
2022-08-17T20:13:17.172Z,21.73
2022-08-17T20:15:45.113Z,21.90
2022-08-17T20:18:25.589Z,22.80
2022-08-17T20:20:59.721Z,23.20
2022-08-17T20:23:39.995Z,22.60
2022-08-17T20:26:33.805Z,24.17
2022-08-17T20:29:16.729Z,24.33
2022-08-17T20:31:55.906Z,25.20
2022-08-17T20:34:33.426Z,26.17
2022-08-17T20:37:07.820Z,25.83
2022-08-17T20:39:46.806Z,25.77
2022-08-17T20:42:19.856Z,25.50
2022-08-17T20:44:57.700Z,24.17
2022-08-17T20:47:29.305Z,22.83
2022-08-17T20:50:08.180Z,22.80
2022-08-17T20:52:50.870Z,23.05
2022-08-17T20:55:35.875Z,23.40
2022-08-17T20:58:22.988Z,23.85
2022-08-17T21:00:51.597Z,23.85
2022-08-17T21:03:24.389Z,25.70
2022-08-17T21:06:15.306Z,24.60
2022-08-17T21:08:57.633Z,24.73
2022-08-17T21:12:02.465Z,24.33
2022-08-17T21:14:42.124Z,23.95
2022-08-17T21:17:30.585Z,24.83
2022-08-17T21:20:21.158Z,25.40
2022-08-17T21:23:24.329Z,25.00
2022-08-17T21:26:17.473Z,25.02
2022-08-17T21:29:31.827Z,25.88
2022-08-17T21:32:00.657Z,24.70
2022-08-17T21:34:33.250Z,25.13
2022-08-17T21:37:18.813Z,25.67
2022-08-17T21:39:55.087Z,25.58
2022-08-17T21:42:29.759Z,26.13
2022-08-17T21:45:18.071Z,25.08
2022-08-17T21:47:50.487Z,25.35
2022-08-17T21:50:23.332Z,26.05
2022-08-17T21:52:54.081Z,24.80
2022-08-17T21:55:28.302Z,26.05
2022-08-17T21:58:14.645Z,26.52
2022-08-17T22:00:44.656Z,27.85
2022-08-17T22:03:24.346Z,26.88
2022-08-17T22:05:51.557Z,27.25
2022-08-17T22:08:22.061Z,25.92
2022-08-17T22:10:51.183Z,27.05
2022-08-17T22:13:18.010Z,27.52
2022-08-17T22:16:27.915Z,27.83
2022-08-17T22:18:54.086Z,28.05
2022-08-17T22:21:22.535Z,28.80
2022-08-17T22:24:21.383Z,28.80
2022-08-17T22:26:59.465Z,29.23
2022-08-17T22:29:54.354Z,29.23
2022-08-17T22:32:37.394Z,26.00
2022-08-17T22:35:28.880Z,27.63
2022-08-17T22:37:57.009Z,25.35
2022-08-17T22:40:33.332Z,28.70
2022-08-17T22:43:03.504Z,30.20
2022-08-17T22:45:31.231Z,28.42
2022-08-17T22:48:00.646Z,28.88
2022-08-17T22:50:31.496Z,29.17
2022-08-17T22:53:20.374Z,29.15
2022-08-17T22:56:11.450Z,29.38
2022-08-17T22:59:11.002Z,29.13
2022-08-17T23:01:39.187Z,30.02
2022-08-17T23:04:09.798Z,28.65
2022-08-17T23:06:39.405Z,28.83
2022-08-17T23:09:07.342Z,28.58
2022-08-17T23:11:49.062Z,28.40
2022-08-17T23:14:20.154Z,29.58
2022-08-17T23:16:49.024Z,28.88
2022-08-17T23:19:19.641Z,27.98
2022-08-17T23:21:46.899Z,29.15
2022-08-17T23:24:22.495Z,26.92
2022-08-17T23:26:49.574Z,29.55
2022-08-17T23:29:16.612Z,28.42
2022-08-17T23:31:43.426Z,29.42
2022-08-17T23:34:13.031Z,30.17
2022-08-17T23:36:40.143Z,29.58
2022-08-17T23:39:07.680Z,29.40
2022-08-17T23:41:38.353Z,29.58
2022-08-17T23:44:06.508Z,29.02
2022-08-17T23:46:34.477Z,29.42
2022-08-17T23:49:01.579Z,28.90
2022-08-17T23:51:34.590Z,30.25
2022-08-17T23:54:11.675Z,30.05
2022-08-17T23:56:46.579Z,30.17
2022-08-17T23:59:15.189Z,29.92
